Silver Bay, MN

12:30 PM CDT on September 26, 2017 (GMT -0500)
Silver Bay Municipal

Weather History for KBFW - March, 2012

Change the Weather History Date:

Friday, March 30, 2012

  Actual Average Record
Temperature  
Mean Temperature 32 °F -  
Max Temperature 33 °F 36 °F 57 °F (2013)
Min Temperature 30 °F 19 °F 6 °F (2011)
Degree Days  
Heating Degree Days 34    
Moisture  
Dew Point 29 °F    
Average Humidity 89    
Maximum Humidity 93    
Minimum Humidity 81    
Precipitation  
Precipitation 0.13 in - - ()
Sea Level Pressure  
Sea Level Pressure 29.86 in    
Wind  
Wind Speed 9 mph (ENE)    
Max Wind Speed 14 mph    
Max Gust Speed 21 mph    
Visibility 2 miles    
Events Fog , Snow    
Averages and records for this station are not official NWS values.
T = Trace of Precipitation, MM = Missing Value Source: NWS Daily Summary

Daily Weather History Graph

Daily Weather History Graph

Search for Another Location

Airport or City:

Trip Planner

Search our weather history database for the weather conditions in past years. The results will help you decide how hot, cold, wet, or windy it might be!

Date:

Astronomy

Mar. 30, 2012 Rise Set
Actual Time 6:47 AM CDT 7:33 PM CDT
Civil Twilight 6:16 AM CDT 8:04 PM CDT
Nautical Twilight 5:39 AM CDT 8:41 PM CDT
Astronomical Twilight 5:01 AM CDT 9:19 PM CDT
Moon 11:35 AM CDT (3/30) 2:28 AM CDT (3/30)
Length of Visible Light 13h 47m
Length of Day
12h 45m
Waxing Crescent, 49% of the Moon is Illuminated
Mar 30
Waxing Crescent
Mar 30
First Quarter
Apr 6
Full
Apr 13
Last Quarter
Apr 21
New

Hourly Weather History & Observations

Time (CDT) Temp. Windchill Dew Point Humidity Pressure Visibility Wind Dir Wind Speed Gust Speed Precip Events Conditions
12:14 AM 30.2 °F 20.2 °F 26.6 °F 86% 29.93 in 1.2 mi ENE 12.7 mph - N/A Snow Light Snow
12:34 AM 30.2 °F 20.2 °F 26.6 °F 86% 29.93 in 1.0 mi ENE 12.7 mph 20.7 mph N/A Snow Snow
12:54 AM 30.2 °F 19.8 °F 26.6 °F 86% 29.92 in 1.0 mi East 13.8 mph 17.3 mph N/A Snow Snow
1:14 AM 30.2 °F 20.2 °F 26.6 °F 86% 29.91 in 1.2 mi ENE 12.7 mph 20.7 mph 0.01 in Snow Light Snow
1:34 AM 30.2 °F 20.2 °F 26.6 °F 86% 29.91 in 0.8 mi ENE 12.7 mph 16.1 mph 0.02 in Snow Snow
1:54 AM 30.2 °F 21.9 °F 28.4 °F 93% 29.91 in 0.8 mi ENE 9.2 mph - 0.01 in Snow Snow
2:14 AM 30.2 °F 21.3 °F 28.4 °F 93% 29.89 in 1.2 mi East 10.4 mph 18.4 mph 0.02 in Snow Snow
2:34 AM 30.2 °F 21.3 °F 28.4 °F 93% 29.89 in 7.0 mi East 10.4 mph 16.1 mph 0.04 in   Overcast
2:54 AM 30.2 °F 21.9 °F 28.4 °F 93% 29.88 in 1.2 mi East 9.2 mph - 0.01 in   Overcast
3:14 AM 30.2 °F 23.4 °F 28.4 °F 93% 29.88 in 0.5 mi East 6.9 mph - 0.04 in   Overcast
3:34 AM 30.2 °F 22.6 °F 28.4 °F 93% 29.88 in 0.8 mi ENE 8.1 mph - 0.05 in   Overcast
3:54 AM 30.2 °F 22.6 °F 28.4 °F 93% 29.87 in 0.8 mi East 8.1 mph - N/A   Overcast
4:14 AM 30.2 °F 22.6 °F 28.4 °F 93% 29.87 in 0.2 mi East 8.1 mph - N/A   Overcast
4:34 AM 30.2 °F 22.6 °F 28.4 °F 93% 29.86 in 0.2 mi East 8.1 mph - N/A   Overcast
4:54 AM 30.2 °F 21.9 °F 28.4 °F 93% 29.86 in 0.5 mi East 9.2 mph - N/A Fog Light Freezing Fog
5:14 AM 30.2 °F 23.4 °F 28.4 °F 93% 29.85 in 0.5 mi East 6.9 mph - N/A   Overcast
5:34 AM 30.2 °F 22.6 °F 28.4 °F 93% 29.85 in 0.5 mi East 8.1 mph - N/A   Overcast
5:54 AM 30.2 °F 22.6 °F 28.4 °F 93% 29.85 in 2.0 mi East 8.1 mph - N/A   Overcast
6:14 AM 30.2 °F 22.6 °F 28.4 °F 93% 29.85 in 4.0 mi East 8.1 mph - N/A   Overcast
6:34 AM 30.2 °F 22.6 °F 28.4 °F 93% 29.85 in 2.5 mi East 8.1 mph - N/A Snow Light Snow
6:54 AM 30.2 °F 21.9 °F 28.4 °F 93% 29.85 in 2.0 mi East 9.2 mph - N/A   Overcast
7:14 AM 30.2 °F 21.3 °F 28.4 °F 93% 29.84 in 4.0 mi East 10.4 mph 17.3 mph N/A   Overcast
7:34 AM 30.2 °F 22.6 °F 28.4 °F 93% 29.85 in 4.0 mi East 8.1 mph - N/A   Overcast
7:54 AM 30.2 °F 22.6 °F 28.4 °F 93% 29.85 in 2.5 mi East 8.1 mph - N/A   Overcast
8:14 AM 30.2 °F 24.3 °F 28.4 °F 93% 29.84 in 1.5 mi East 5.8 mph - 0.01 in   Overcast
8:34 AM 30.2 °F 24.3 °F 28.4 °F 93% 29.85 in 3.0 mi East 5.8 mph - 0.02 in   Overcast
8:54 AM 30.2 °F 22.6 °F 28.4 °F 93% 29.84 in 2.0 mi East 8.1 mph - N/A   Overcast
9:14 AM 30.2 °F 22.6 °F 28.4 °F 93% 29.84 in 1.8 mi East 8.1 mph - N/A   Overcast
9:34 AM 30.2 °F 23.4 °F 28.4 °F 93% 29.84 in 2.5 mi East 6.9 mph - N/A   Overcast
9:54 AM 32.0 °F 24.2 °F 28.4 °F 87% 29.84 in 2.0 mi East 9.2 mph - N/A   Overcast
10:14 AM 32.0 °F 28.7 °F 28.4 °F 87% 29.85 in 2.0 mi East 3.5 mph - N/A   Overcast
10:34 AM 32.0 °F 26.4 °F 28.4 °F 87% 29.85 in 1.8 mi East 5.8 mph - N/A   Overcast
10:54 AM 32.0 °F 26.4 °F 30.2 °F 93% 29.85 in 2.0 mi East 5.8 mph - N/A   Overcast
11:14 AM 33.8 °F 27.7 °F 30.2 °F 87% 29.85 in 2.0 mi East 6.9 mph - N/A   Overcast
11:34 AM 33.8 °F 28.6 °F 30.2 °F 87% 29.85 in 2.5 mi East 5.8 mph - N/A   Overcast
11:54 AM 33.8 °F 27.7 °F 30.2 °F 87% 29.85 in 2.5 mi East 6.9 mph - N/A   Overcast
12:14 PM 33.8 °F 29.6 °F 30.2 °F 87% 29.85 in 2.5 mi ENE 4.6 mph - N/A   Overcast
12:34 PM 33.8 °F 29.6 °F 30.2 °F 87% 29.85 in 2.0 mi East 4.6 mph - N/A   Overcast
12:54 PM 33.8 °F 29.6 °F 28.4 °F 81% 29.85 in 2.0 mi East 4.6 mph - N/A   Haze
1:14 PM 33.8 °F 30.8 °F 30.2 °F 87% 29.85 in 0.8 mi ENE 3.5 mph - N/A   Overcast
1:34 PM 33.8 °F 30.8 °F 30.2 °F 87% 29.85 in 0.8 mi ENE 3.5 mph - N/A   Overcast
1:54 PM 33.8 °F 28.6 °F 30.2 °F 87% 29.84 in 0.2 mi East 5.8 mph - N/A Fog Fog
2:14 PM 33.8 °F 30.8 °F 30.2 °F 87% 29.84 in 1.5 mi East 3.5 mph - N/A   Overcast
2:34 PM 33.8 °F 30.8 °F 30.2 °F 87% 29.85 in 4.0 mi East 3.5 mph - N/A   Overcast
2:54 PM 33.8 °F 29.6 °F 30.2 °F 87% 29.84 in 7.0 mi East 4.6 mph - N/A   Overcast
3:14 PM 33.8 °F 29.6 °F 30.2 °F 87% 29.84 in 7.0 mi ENE 4.6 mph - N/A   Overcast
3:34 PM 33.8 °F 29.6 °F 30.2 °F 87% 29.84 in 7.0 mi NE 4.6 mph - N/A   Overcast
3:54 PM 33.8 °F 30.8 °F 30.2 °F 87% 29.84 in 5.0 mi ENE 3.5 mph - N/A   Overcast
4:14 PM 33.8 °F 28.6 °F 30.2 °F 87% 29.84 in 4.0 mi East 5.8 mph - N/A   Overcast
4:34 PM 33.8 °F 30.8 °F 30.2 °F 87% 29.85 in 5.0 mi NE 3.5 mph - N/A   Overcast
4:54 PM 33.8 °F 29.6 °F 30.2 °F 87% 29.85 in 4.0 mi ENE 4.6 mph - N/A   Overcast
5:14 PM 33.8 °F 28.6 °F 30.2 °F 87% 29.86 in 4.0 mi ENE 5.8 mph - N/A   Overcast
5:34 PM 33.8 °F 29.6 °F 30.2 °F 87% 29.86 in 5.0 mi ENE 4.6 mph - N/A   Overcast
5:54 PM 33.8 °F 29.6 °F 30.2 °F 87% 29.87 in 7.0 mi ENE 4.6 mph - N/A   Overcast
6:14 PM 33.8 °F 29.6 °F 30.2 °F 87% 29.88 in 0.5 mi ENE 4.6 mph - N/A Fog Fog
6:34 PM 33.8 °F 27.7 °F 30.2 °F 87% 29.88 in 0.5 mi ENE 6.9 mph - N/A Fog Fog
6:54 PM 33.8 °F 29.6 °F 30.2 °F 87% 29.89 in 2.0 mi ENE 4.6 mph - N/A   Overcast
7:14 PM 33.8 °F 27.7 °F 30.2 °F 87% 29.89 in 2.0 mi NE 6.9 mph - N/A   Overcast
7:34 PM 33.8 °F 27.7 °F 30.2 °F 87% 29.89 in 3.0 mi NE 6.9 mph - N/A   Overcast
7:54 PM 33.8 °F 28.6 °F 30.2 °F 87% 29.89 in 1.2 mi ENE 5.8 mph - N/A   Overcast
8:14 PM 33.8 °F 27.7 °F 30.2 °F 87% 29.90 in 0.8 mi ENE 6.9 mph - N/A   Overcast
8:34 PM 33.8 °F 28.6 °F 30.2 °F 87% 29.90 in 0.8 mi ENE 5.8 mph - N/A   Overcast
8:54 PM 33.8 °F 27.0 °F 30.2 °F 87% 29.90 in 1.0 mi ENE 8.1 mph - N/A   Overcast
9:14 PM 32.0 °F 24.2 °F 30.2 °F 93% 29.89 in 1.5 mi ENE 9.2 mph - N/A   Overcast
9:34 PM 32.0 °F 26.4 °F 30.2 °F 93% 29.89 in 1.0 mi ENE 5.8 mph - N/A   Overcast
9:54 PM 32.0 °F 26.4 °F 30.2 °F 93% 29.90 in 0.5 mi ENE 5.8 mph - N/A Fog Fog
10:14 PM 32.0 °F 26.4 °F 30.2 °F 93% 29.91 in 0.5 mi NE 5.8 mph - N/A Fog Fog
10:34 PM 32.0 °F 24.8 °F 30.2 °F 93% 29.90 in 0.5 mi NE 8.1 mph - N/A Fog Fog
10:54 PM 32.0 °F 26.4 °F 30.2 °F 93% 29.89 in 0.2 mi ENE 5.8 mph - N/A Fog Fog
11:14 PM 32.0 °F 26.4 °F 30.2 °F 93% 29.89 in 0.2 mi ENE 5.8 mph - N/A Fog Fog
11:34 PM 33.8 °F 30.8 °F 30.2 °F 87% 29.90 in 0.2 mi NE 3.5 mph - N/A Fog Fog
11:54 PM 33.8 °F 29.6 °F 30.2 °F 87% 29.91 in 0.2 mi ENE 4.6 mph - N/A Fog Fog